createdAt,value
2018-07-13T00:02:18.872Z,99597.45
2018-07-13T00:04:47.460Z,99595.92
2018-07-13T00:07:16.060Z,99593.83
2018-07-13T00:09:45.457Z,99586.80
2018-07-13T00:12:14.072Z,99587.19
2018-07-13T00:15:19.827Z,99592.94
2018-07-13T00:17:48.408Z,99587.25
2018-07-13T00:20:17.024Z,99588.09
2018-07-13T00:22:45.617Z,99593.27
2018-07-13T00:25:14.285Z,99589.44
2018-07-13T00:27:42.873Z,99589.50
2018-07-13T00:30:11.536Z,99596.11
2018-07-13T00:32:40.191Z,99598.45
2018-07-13T00:35:08.781Z,99594.88
2018-07-13T00:37:37.374Z,99595.08
2018-07-13T00:40:06.029Z,99595.63
2018-07-13T00:42:34.608Z,99588.00
2018-07-13T00:45:03.257Z,99589.75
2018-07-13T00:47:31.831Z,99592.60
2018-07-13T00:50:00.451Z,99591.48
2018-07-13T00:52:29.052Z,99592.20
2018-07-13T00:54:57.644Z,99595.69
2018-07-13T00:57:26.245Z,99597.70
2018-07-13T00:59:54.969Z,99593.19
2018-07-13T01:02:23.574Z,99601.84
2018-07-13T01:04:52.203Z,99594.30
2018-07-13T01:07:20.838Z,99596.80
2018-07-13T01:09:49.408Z,99589.17
2018-07-13T01:12:18.029Z,99593.84
2018-07-13T01:14:46.696Z,99593.70
2018-07-13T01:17:15.270Z,99593.42
2018-07-13T01:19:43.841Z,99602.41
2018-07-13T01:22:12.476Z,99597.92
2018-07-13T01:24:41.569Z,99592.34
2018-07-13T01:27:10.129Z,99589.47
2018-07-13T01:29:38.728Z,99586.78
2018-07-13T01:32:07.463Z,99586.39
2018-07-13T01:34:36.060Z,99579.51
2018-07-13T01:37:04.687Z,99589.44
2018-07-13T01:39:33.242Z,99582.97
2018-07-13T01:42:01.800Z,99589.55
2018-07-13T01:44:30.409Z,99592.34
2018-07-13T01:46:58.992Z,99587.85
2018-07-13T01:49:27.641Z,99591.91
2018-07-13T01:51:56.228Z,99584.13
2018-07-13T01:54:24.792Z,99584.43
2018-07-13T01:56:53.402Z,99588.72
2018-07-13T01:59:21.987Z,99585.73
2018-07-13T02:01:50.578Z,99587.12
2018-07-13T02:04:19.173Z,99589.02
2018-07-13T02:06:48.278Z,99593.45
2018-07-13T02:09:16.921Z,99589.47
2018-07-13T02:11:45.549Z,99589.41
2018-07-13T02:14:14.178Z,99603.89
2018-07-13T02:16:43.277Z,99594.51
2018-07-13T02:19:11.891Z,99591.70
2018-07-13T02:21:40.584Z,99590.02
2018-07-13T02:24:09.246Z,99599.09
2018-07-13T02:26:37.843Z,99597.34
2018-07-13T02:29:06.734Z,99591.45
2018-07-13T02:31:35.857Z,99593.35
2018-07-13T02:34:04.544Z,99594.73
2018-07-13T02:36:33.121Z,99604.73
2018-07-13T02:39:01.934Z,99592.52
2018-07-13T02:41:30.481Z,99590.16
2018-07-13T02:43:59.079Z,99594.65
2018-07-13T02:46:27.709Z,99594.11
2018-07-13T02:48:56.273Z,99595.19
2018-07-13T02:51:24.921Z,99596.55
2018-07-13T02:53:53.517Z,99595.10
2018-07-13T02:56:22.078Z,99599.14
2018-07-13T02:58:50.678Z,99593.35
2018-07-13T03:01:19.294Z,99596.33
2018-07-13T03:03:47.870Z,99590.84
2018-07-13T03:06:16.461Z,99596.40
2018-07-13T03:08:45.027Z,99597.70
2018-07-13T03:11:13.625Z,99594.95
2018-07-13T03:13:42.209Z,99598.70
2018-07-13T03:16:11.469Z,99600.53
2018-07-13T03:18:40.063Z,99601.14
2018-07-13T03:21:08.754Z,99601.69
2018-07-13T03:23:37.353Z,99597.34
2018-07-13T03:26:06.042Z,99598.00
2018-07-13T03:28:34.651Z,99596.26
2018-07-13T03:31:03.258Z,99607.03
2018-07-13T03:33:31.861Z,99605.34
2018-07-13T03:36:00.431Z,99605.97
2018-07-13T03:38:29.146Z,99611.46
2018-07-13T03:40:57.661Z,99613.06
2018-07-13T03:43:26.231Z,99609.38
2018-07-13T03:45:54.814Z,99617.01
2018-07-13T03:48:23.515Z,99614.81
2018-07-13T03:50:52.100Z,99617.70
2018-07-13T03:53:20.714Z,99611.77
2018-07-13T03:55:49.352Z,99613.76
2018-07-13T03:58:18.034Z,99614.36
2018-07-13T04:00:46.621Z,99620.45
2018-07-13T04:03:15.276Z,99616.50
2018-07-13T04:05:43.869Z,99613.56
2018-07-13T04:08:12.567Z,99615.80
2018-07-13T04:10:41.197Z,99624.06
2018-07-13T04:13:09.878Z,99626.12
2018-07-13T04:15:38.528Z,99623.05
2018-07-13T04:18:11.493Z,99626.41
2018-07-13T04:20:40.153Z,99631.52
2018-07-13T04:23:08.845Z,99631.11
2018-07-13T04:25:37.522Z,99623.77
2018-07-13T04:28:06.177Z,99629.47
2018-07-13T04:30:34.809Z,99632.82
2018-07-13T04:33:03.515Z,99627.33
2018-07-13T04:35:32.126Z,99619.31
2018-07-13T04:38:00.782Z,99637.93
2018-07-13T04:40:29.528Z,99620.42
2018-07-13T04:42:58.469Z,99619.31
2018-07-13T04:45:27.280Z,99618.56
2018-07-13T04:47:55.947Z,99624.48
2018-07-13T04:50:24.726Z,99617.91
2018-07-13T04:52:53.490Z,99612.74
2018-07-13T04:55:22.260Z,99620.25
2018-07-13T04:57:51.127Z,99610.88
2018-07-13T05:00:19.889Z,99615.46
2018-07-13T05:02:48.638Z,99615.06
2018-07-13T05:05:17.266Z,99619.14
2018-07-13T05:07:45.972Z,99617.51
2018-07-13T05:10:14.639Z,99622.16
2018-07-13T05:12:43.313Z,99614.00
2018-07-13T05:15:11.975Z,99611.28
2018-07-13T05:17:40.653Z,99614.78
2018-07-13T05:20:09.283Z,99626.05
2018-07-13T05:22:37.969Z,99615.19
2018-07-13T05:25:07.581Z,99612.36
2018-07-13T05:27:36.241Z,99615.78
2018-07-13T05:30:05.401Z,99622.98
2018-07-13T05:32:34.089Z,99617.89
2018-07-13T05:35:02.802Z,99617.35
2018-07-13T05:37:31.993Z,99619.02
2018-07-13T05:40:02.027Z,99618.56
2018-07-13T05:42:30.713Z,99622.86
2018-07-13T05:44:59.314Z,99614.20
2018-07-13T05:47:27.941Z,99626.41
2018-07-13T05:49:57.560Z,99610.22
2018-07-13T05:52:26.350Z,99612.26
2018-07-13T05:54:55.001Z,99606.31
2018-07-13T05:57:23.737Z,99614.33
2018-07-13T05:59:52.444Z,99614.66
2018-07-13T06:02:21.083Z,99617.91
2018-07-13T06:04:49.801Z,99619.05
2018-07-13T06:07:18.456Z,99609.74
2018-07-13T06:09:47.113Z,99620.22
2018-07-13T06:12:15.799Z,99622.02
2018-07-13T06:14:44.460Z,99644.05
2018-07-13T06:17:13.117Z,99628.05
2018-07-13T06:19:41.733Z,99640.63
2018-07-13T06:22:10.383Z,99621.48
2018-07-13T06:24:38.957Z,99641.47
2018-07-13T06:27:07.580Z,99628.77
2018-07-13T06:29:36.209Z,99630.98
2018-07-13T06:32:04.865Z,99637.84
2018-07-13T06:34:33.506Z,99645.55
2018-07-13T06:37:02.695Z,99644.13
2018-07-13T06:39:31.321Z,99646.53
2018-07-13T06:42:00.011Z,99657.42
2018-07-13T06:44:28.801Z,99645.10
2018-07-13T06:46:57.748Z,99645.61
2018-07-13T06:49:26.424Z,99644.25
2018-07-13T06:51:55.058Z,99645.89
2018-07-13T06:54:23.859Z,99664.47
2018-07-13T06:56:52.544Z,99663.26
2018-07-13T06:59:22.431Z,99656.59
2018-07-13T07:01:52.166Z,99660.03
2018-07-13T07:04:31.982Z,99653.39
2018-07-13T07:07:02.339Z,99650.14
2018-07-13T07:09:31.830Z,99649.67
2018-07-13T07:13:11.742Z,99668.41
2018-07-13T07:15:40.564Z,99650.11
2018-07-13T07:18:09.515Z,99654.41
2018-07-13T07:20:38.134Z,99661.98
2018-07-13T07:23:06.868Z,99656.03
2018-07-13T07:25:35.586Z,99659.71
2018-07-13T07:28:04.249Z,99656.59
2018-07-13T07:30:33.478Z,99658.81
2018-07-13T07:33:02.815Z,99661.74
2018-07-13T07:35:31.745Z,99663.66
2018-07-13T07:38:01.227Z,99658.64
2018-07-13T07:40:30.000Z,99659.59
2018-07-13T07:42:58.892Z,99661.82
2018-07-13T07:45:27.776Z,99664.86
2018-07-13T07:47:56.480Z,99666.92
2018-07-13T07:50:25.876Z,99658.98
2018-07-13T07:52:55.214Z,99658.66
2018-07-13T07:55:24.407Z,99659.70
2018-07-13T07:57:53.436Z,99653.48
2018-07-13T08:00:28.306Z,99661.01
2018-07-13T08:02:57.000Z,99660.58
2018-07-13T08:05:25.707Z,99657.42
2018-07-13T08:07:54.780Z,99677.05
2018-07-13T08:10:23.530Z,99659.53
2018-07-13T08:12:52.284Z,99661.98
2018-07-13T08:15:21.035Z,99657.27
2018-07-13T08:17:49.745Z,99654.59
2018-07-13T08:20:29.331Z,99647.92
2018-07-13T08:22:58.728Z,99642.94
2018-07-13T08:25:28.091Z,99643.10
2018-07-13T08:27:59.233Z,99635.78
2018-07-13T08:30:30.907Z,99646.72
2018-07-13T08:32:59.769Z,99631.02
2018-07-13T08:35:29.715Z,99645.30
2018-07-13T08:37:58.599Z,99653.94
2018-07-13T08:40:27.318Z,99648.61
2018-07-13T08:42:56.245Z,99635.94
2018-07-13T08:45:24.927Z,99648.07
2018-07-13T08:47:53.663Z,99638.45
2018-07-13T08:50:23.179Z,99638.35
2018-07-13T08:52:52.418Z,99631.05
2018-07-13T08:55:21.269Z,99636.77
2018-07-13T08:57:50.329Z,99647.23
2018-07-13T09:00:19.504Z,99649.98
2018-07-13T09:02:48.383Z,99645.41
2018-07-13T09:05:17.231Z,99647.20
2018-07-13T09:07:45.994Z,99637.21
2018-07-13T09:10:15.644Z,99628.68
2018-07-13T09:12:44.388Z,99633.97
2018-07-13T09:15:14.132Z,99639.33
2018-07-13T09:17:42.809Z,99646.52
2018-07-13T09:20:12.706Z,99644.28
2018-07-13T09:22:41.523Z,99661.75
2018-07-13T09:25:11.041Z,99639.27
2018-07-13T09:27:40.366Z,99644.14
2018-07-13T09:30:10.285Z,99646.27
2018-07-13T09:32:39.022Z,99642.23
2018-07-13T09:35:07.896Z,99650.55
2018-07-13T09:37:36.716Z,99637.30
2018-07-13T09:40:05.613Z,99633.76
2018-07-13T09:42:34.557Z,99631.27
2018-07-13T09:45:03.348Z,99637.21
2018-07-13T09:47:32.038Z,99633.41
2018-07-13T09:50:00.724Z,99639.39
2018-07-13T09:52:29.494Z,99644.03
2018-07-13T09:54:58.185Z,99629.35
2018-07-13T09:57:27.049Z,99636.75
2018-07-13T09:59:56.049Z,99625.30
2018-07-13T10:02:24.735Z,99631.86
2018-07-13T10:04:53.401Z,99618.14
2018-07-13T10:07:22.154Z,99624.48
2018-07-13T10:09:57.240Z,99638.66
2018-07-13T10:12:25.951Z,99621.00
2018-07-13T10:14:54.636Z,99612.67
2018-07-13T10:17:23.317Z,99616.91
2018-07-13T10:19:52.124Z,99609.55
2018-07-13T10:22:24.089Z,99612.29
2018-07-13T10:24:53.610Z,99611.22
2018-07-13T10:27:23.038Z,99609.86
2018-07-13T10:29:54.486Z,99606.63
2018-07-13T10:32:23.359Z,99621.17
2018-07-13T10:34:52.656Z,99614.83
2018-07-13T10:37:21.490Z,99599.66
2018-07-13T10:39:50.194Z,99602.14
2018-07-13T10:42:18.867Z,99606.92
2018-07-13T10:44:47.607Z,99636.97
2018-07-13T10:47:17.418Z,99600.72
2018-07-13T10:49:46.106Z,99600.39
2018-07-13T10:52:16.061Z,99596.89
2018-07-13T10:54:44.871Z,99601.23
2018-07-13T10:57:14.116Z,99594.80
2018-07-13T10:59:42.828Z,99613.47
2018-07-13T11:02:13.652Z,99595.22
2018-07-13T11:04:42.359Z,99592.95
2018-07-13T11:07:11.966Z,99579.88
2018-07-13T11:09:40.917Z,99593.38
2018-07-13T11:12:12.851Z,99587.25
2018-07-13T11:14:41.683Z,99576.88
2018-07-13T11:17:10.573Z,99578.98
2018-07-13T11:19:39.492Z,99577.13
2018-07-13T11:22:09.524Z,99576.81
2018-07-13T11:24:38.450Z,99596.06
2018-07-13T11:27:07.438Z,99583.94
2018-07-13T11:29:36.117Z,99577.14
2018-07-13T11:32:04.849Z,99580.20
2018-07-13T11:34:33.701Z,99561.59
2018-07-13T11:37:02.708Z,99583.23
2018-07-13T11:39:31.875Z,99595.12
2018-07-13T11:42:00.771Z,99568.30
2018-07-13T11:44:30.336Z,99576.22
2018-07-13T11:46:59.027Z,99584.31
2018-07-13T11:49:27.692Z,99585.38
2018-07-13T11:51:56.385Z,99573.81
2018-07-13T11:54:25.264Z,99584.00
2018-07-13T11:56:54.165Z,99575.55
2018-07-13T11:59:23.088Z,99571.79
2018-07-13T12:01:51.888Z,99572.33
2018-07-13T12:04:20.681Z,99571.66
2018-07-13T12:06:49.358Z,99582.12
2018-07-13T12:09:18.051Z,99556.59
2018-07-13T12:11:46.650Z,99574.39
2018-07-13T12:14:15.459Z,99574.58
2018-07-13T12:16:44.211Z,99565.75
2018-07-13T12:19:12.829Z,99578.02
2018-07-13T12:21:41.588Z,99562.02
2018-07-13T12:24:10.279Z,99568.59
2018-07-13T12:26:38.919Z,99573.43
2018-07-13T12:29:07.649Z,99575.80
2018-07-13T12:31:36.277Z,99578.06
2018-07-13T12:34:04.956Z,99569.41
2018-07-13T12:36:33.684Z,99561.92
2018-07-13T12:39:02.368Z,99567.27
2018-07-13T12:41:31.089Z,99556.60
2018-07-13T12:43:59.833Z,99547.50
2018-07-13T12:46:28.581Z,99564.38
2018-07-13T12:48:57.206Z,99560.22
2018-07-13T12:51:25.883Z,99568.95
2018-07-13T12:53:54.593Z,99569.66
2018-07-13T12:56:23.214Z,99568.06
2018-07-13T12:58:52.478Z,99576.38
2018-07-13T13:01:21.093Z,99569.01
2018-07-13T13:03:49.702Z,99572.39
2018-07-13T13:06:18.372Z,99559.90
2018-07-13T13:08:47.021Z,99567.88
2018-07-13T13:11:15.831Z,99558.02
2018-07-13T13:13:44.494Z,99560.81
2018-07-13T13:16:13.739Z,99546.38
2018-07-13T13:18:42.376Z,99540.23
2018-07-13T13:21:11.014Z,99553.16
2018-07-13T13:23:39.667Z,99541.99
2018-07-13T13:26:08.334Z,99551.61
2018-07-13T13:28:37.063Z,99553.90
2018-07-13T13:31:05.639Z,99573.09
2018-07-13T13:33:34.289Z,99561.64
2018-07-13T13:36:02.941Z,99556.34
2018-07-13T13:38:31.598Z,99581.17
2018-07-13T13:41:00.272Z,99567.16
2018-07-13T13:43:28.912Z,99554.07
2018-07-13T13:45:57.526Z,99553.20
2018-07-13T13:48:26.153Z,99556.12
2018-07-13T13:50:54.839Z,99547.59
2018-07-13T13:53:24.101Z,99545.38
2018-07-13T13:55:52.743Z,99546.19
2018-07-13T13:58:21.390Z,99543.75
2018-07-13T14:00:50.065Z,99545.66
2018-07-13T14:03:18.728Z,99547.80
2018-07-13T14:05:47.837Z,99540.01
2018-07-13T14:08:16.928Z,99548.95
2018-07-13T14:10:45.614Z,99547.55
2018-07-13T14:13:14.261Z,99544.84
2018-07-13T14:15:43.007Z,99544.20
2018-07-13T14:18:13.048Z,99538.97
2018-07-13T14:20:41.717Z,99542.06
2018-07-13T14:23:10.970Z,99550.20
2018-07-13T14:25:39.626Z,99571.14
2018-07-13T14:28:08.366Z,99578.41
2018-07-13T14:30:37.991Z,99590.97
2018-07-13T14:33:06.796Z,99577.44
2018-07-13T14:35:35.470Z,99598.16
2018-07-13T14:38:04.175Z,99603.02
2018-07-13T14:40:32.896Z,99587.27
2018-07-13T14:43:01.637Z,99582.84
2018-07-13T14:45:31.058Z,99602.19
2018-07-13T14:47:59.681Z,99586.28
2018-07-13T14:50:28.576Z,99571.59
2018-07-13T14:52:57.242Z,99572.16
2018-07-13T14:55:25.884Z,99579.97
2018-07-13T14:57:54.697Z,99576.14
2018-07-13T15:00:23.366Z,99593.03
2018-07-13T15:02:52.019Z,99591.82
2018-07-13T15:05:20.653Z,99598.64
2018-07-13T15:07:49.924Z,99609.44
2018-07-13T15:10:19.712Z,99613.53
2018-07-13T15:12:48.261Z,99604.96
2018-07-13T15:15:16.984Z,99609.81
2018-07-13T15:17:45.668Z,99611.25
2018-07-13T15:20:16.254Z,99605.98
2018-07-13T15:22:45.428Z,99601.97
2018-07-13T15:25:14.118Z,99596.11
2018-07-13T15:27:42.759Z,99586.62
2018-07-13T15:30:12.309Z,99577.84
2018-07-13T15:32:41.062Z,99574.63
2018-07-13T15:35:09.746Z,99576.25
2018-07-13T15:37:38.385Z,99561.28
2018-07-13T15:40:08.813Z,99565.84
2018-07-13T15:42:37.487Z,99556.59
2018-07-13T15:45:06.718Z,99556.59
2018-07-13T15:47:36.162Z,99558.34
2018-07-13T15:50:05.631Z,99562.56
2018-07-13T15:52:36.512Z,99561.91
2018-07-13T15:55:05.367Z,99574.06
2018-07-13T15:57:34.042Z,99579.37
2018-07-13T16:00:02.863Z,99573.99
2018-07-13T16:02:31.893Z,99575.94
2018-07-13T16:05:00.677Z,99589.23
2018-07-13T16:07:29.461Z,99599.64
2018-07-13T16:09:58.177Z,99604.81
2018-07-13T16:12:26.852Z,99610.44
2018-07-13T16:14:55.499Z,99599.47
2018-07-13T16:17:28.540Z,99622.94
2018-07-13T16:19:57.467Z,99629.17
2018-07-13T16:22:26.995Z,99610.90
2018-07-13T16:24:55.981Z,99605.89
2018-07-13T16:27:24.736Z,99599.55
2018-07-13T16:29:56.042Z,99591.46
2018-07-13T16:32:24.902Z,99582.14
2018-07-13T16:34:53.664Z,99581.56
2018-07-13T16:37:23.266Z,99583.90
2018-07-13T16:39:52.107Z,99588.64
2018-07-13T16:42:21.274Z,99582.44
2018-07-13T16:44:50.174Z,99580.89
2018-07-13T16:47:18.958Z,99578.20
2018-07-13T16:49:48.208Z,99577.30
2018-07-13T16:52:17.216Z,99578.91
2018-07-13T16:54:45.961Z,99576.09
2018-07-13T16:57:14.743Z,99578.17
2018-07-13T16:59:43.470Z,99583.33
2018-07-13T17:02:12.272Z,99572.83
2018-07-13T17:04:41.027Z,99570.73
2018-07-13T17:07:09.734Z,99566.17
2018-07-13T17:09:38.524Z,99560.06
2018-07-13T17:12:07.546Z,99560.63
2018-07-13T17:14:36.295Z,99561.61
2018-07-13T17:17:05.102Z,99562.22
2018-07-13T17:19:33.808Z,99553.77
2018-07-13T17:22:02.599Z,99558.63
2018-07-13T17:24:31.456Z,99563.12
2018-07-13T17:27:00.196Z,99561.98
2018-07-13T17:29:28.979Z,99557.60
2018-07-13T17:31:57.919Z,99567.13
2018-07-13T17:34:26.677Z,99561.83
2018-07-13T17:36:55.448Z,99550.30
2018-07-13T17:39:24.388Z,99556.38
2018-07-13T17:41:53.165Z,99556.44
2018-07-13T17:44:21.941Z,99561.91
2018-07-13T17:46:50.705Z,99558.47
2018-07-13T17:49:19.602Z,99557.16
2018-07-13T17:51:48.303Z,99568.05
2018-07-13T17:54:17.356Z,99564.02
2018-07-13T17:56:46.146Z,99567.31
2018-07-13T17:59:14.833Z,99572.75
2018-07-13T18:01:43.651Z,99571.70
2018-07-13T18:04:14.711Z,99572.67
2018-07-13T18:06:43.441Z,99576.12
2018-07-13T18:09:12.865Z,99575.48
2018-07-13T18:11:42.563Z,99571.64
2018-07-13T18:14:13.526Z,99568.14
2018-07-13T18:16:42.330Z,99565.42
2018-07-13T18:19:11.134Z,99563.80
2018-07-13T18:21:40.039Z,99570.39
2018-07-13T18:24:08.831Z,99569.41
2018-07-13T18:26:37.503Z,99579.09
2018-07-13T18:29:06.190Z,99576.08
2018-07-13T18:31:34.834Z,99570.85
2018-07-13T18:34:04.306Z,99573.87
2018-07-13T18:36:33.110Z,99574.28
2018-07-13T18:39:02.009Z,99580.66
2018-07-13T18:41:30.706Z,99578.39
2018-07-13T18:43:59.320Z,99574.63
2018-07-13T18:46:28.030Z,99591.58
2018-07-13T18:48:56.787Z,99597.66
2018-07-13T18:51:25.450Z,99597.28
2018-07-13T18:53:54.122Z,99592.47
2018-07-13T18:56:23.193Z,99593.62
2018-07-13T18:58:51.787Z,99601.58
2018-07-13T19:01:20.421Z,99601.58
2018-07-13T19:03:49.034Z,99598.28
2018-07-13T19:06:17.785Z,99607.59
2018-07-13T19:08:46.450Z,99610.77
2018-07-13T19:11:15.087Z,99617.10
2018-07-13T19:13:43.786Z,99613.21
2018-07-13T19:16:12.513Z,99619.19
2018-07-13T19:18:41.198Z,99620.59
2018-07-13T19:21:10.021Z,99621.56
2018-07-13T19:23:39.093Z,99619.53
2018-07-13T19:26:07.843Z,99627.70
2018-07-13T19:28:36.991Z,99629.75
2018-07-13T19:31:05.861Z,99635.44
2018-07-13T19:33:35.159Z,99634.98
2018-07-13T19:36:03.884Z,99630.12
2018-07-13T19:38:33.380Z,99633.45
2018-07-13T19:41:02.155Z,99636.63
2018-07-13T19:43:30.989Z,99639.05
2018-07-13T19:45:59.769Z,99638.67
2018-07-13T19:50:52.524Z,99637.36
2018-07-13T19:53:21.262Z,99643.70
2018-07-13T19:55:49.959Z,99633.83
2018-07-13T19:58:18.734Z,99636.92
2018-07-13T20:00:47.658Z,99634.77
2018-07-13T20:03:17.240Z,99641.01
2018-07-13T20:05:46.073Z,99638.48
2018-07-13T20:08:14.812Z,99635.70
2018-07-13T20:10:43.499Z,99638.38
2018-07-13T20:13:12.248Z,99634.94
2018-07-13T20:15:40.976Z,99638.66
2018-07-13T20:18:09.430Z,99640.63
2018-07-13T20:20:38.263Z,99639.77
2018-07-13T20:23:07.009Z,99643.84
2018-07-13T20:25:35.802Z,99648.52
2018-07-13T20:28:04.492Z,99647.41
2018-07-13T20:30:33.255Z,99648.42
2018-07-13T20:33:01.979Z,99647.30
2018-07-13T20:35:30.878Z,99647.58
2018-07-13T20:37:59.761Z,99650.56
2018-07-13T20:40:28.548Z,99648.17
2018-07-13T20:42:57.277Z,99655.61
2018-07-13T20:45:26.007Z,99659.43
2018-07-13T20:47:54.680Z,99658.22
2018-07-13T20:50:23.354Z,99668.80
2018-07-13T20:52:52.487Z,99654.88
2018-07-13T20:55:21.346Z,99657.39
2018-07-13T20:57:50.220Z,99658.41
2018-07-13T21:00:20.481Z,99661.12
2018-07-13T21:02:49.479Z,99669.59
2018-07-13T21:05:24.974Z,99667.36
2018-07-13T21:07:54.110Z,99660.09
2018-07-13T21:10:24.587Z,99652.55
2018-07-13T21:12:53.349Z,99660.44
2018-07-13T21:15:22.068Z,99657.20
2018-07-13T21:17:50.772Z,99658.95
2018-07-13T21:20:19.559Z,99658.76
2018-07-13T21:22:48.281Z,99653.17
2018-07-13T21:25:16.999Z,99654.39
2018-07-13T21:27:45.711Z,99661.47
2018-07-13T21:30:14.738Z,99660.98
2018-07-13T21:32:44.555Z,99662.64
2018-07-13T21:35:13.218Z,99659.27
2018-07-13T21:37:42.046Z,99662.75
2018-07-13T21:40:10.750Z,99665.53
2018-07-13T21:42:39.478Z,99657.15
2018-07-13T21:45:08.245Z,99666.91
2018-07-13T21:47:37.601Z,99671.76
2018-07-13T21:50:06.348Z,99668.03
2018-07-13T21:52:35.095Z,99664.47
2018-07-13T21:55:03.840Z,99663.17
2018-07-13T21:57:32.530Z,99665.70
2018-07-13T22:00:01.221Z,99670.98
2018-07-13T22:02:30.072Z,99667.11
2018-07-13T22:04:58.776Z,99663.87
2018-07-13T22:07:27.399Z,99667.34
2018-07-13T22:09:56.114Z,99669.28
2018-07-13T22:12:24.794Z,99670.40
2018-07-13T22:14:53.858Z,99665.59
2018-07-13T22:17:22.547Z,99673.38
2018-07-13T22:19:51.351Z,99670.17
2018-07-13T22:22:20.084Z,99672.61
2018-07-13T22:24:48.882Z,99671.07
2018-07-13T22:27:17.530Z,99681.59
2018-07-13T22:29:46.218Z,99681.21
2018-07-13T22:32:15.498Z,99681.84
2018-07-13T22:34:44.214Z,99675.77
2018-07-13T22:37:12.919Z,99683.02
2018-07-13T22:39:41.591Z,99676.14
2018-07-13T22:42:10.404Z,99685.91
2018-07-13T22:44:39.119Z,99677.45
2018-07-13T22:47:07.917Z,99676.49
2018-07-13T22:49:36.590Z,99671.53
2018-07-13T22:52:05.200Z,99667.26
2018-07-13T22:54:33.810Z,99668.34
2018-07-13T22:57:02.457Z,99673.26
2018-07-13T22:59:31.106Z,99672.10
2018-07-13T23:01:59.888Z,99671.78
2018-07-13T23:04:28.534Z,99667.30
2018-07-13T23:06:57.190Z,99661.06
2018-07-13T23:09:25.762Z,99671.33
2018-07-13T23:11:54.413Z,99665.93
2018-07-13T23:14:22.993Z,99664.53
2018-07-13T23:16:51.586Z,99670.87
2018-07-13T23:19:20.286Z,99669.48
2018-07-13T23:21:48.909Z,99672.41
2018-07-13T23:24:17.710Z,99665.94
2018-07-13T23:26:46.409Z,99669.54
2018-07-13T23:29:15.022Z,99669.05
2018-07-13T23:31:43.682Z,99667.44
2018-07-13T23:34:12.366Z,99665.06
2018-07-13T23:36:41.746Z,99668.44
2018-07-13T23:39:10.379Z,99658.78
2018-07-13T23:41:39.338Z,99655.55
2018-07-13T23:44:08.100Z,99661.93
2018-07-13T23:46:36.740Z,99658.95
2018-07-13T23:49:05.461Z,99657.32
2018-07-13T23:51:34.073Z,99656.81
2018-07-13T23:54:02.774Z,99651.61
2018-07-13T23:56:31.417Z,99666.05
2018-07-13T23:59:00.031Z,99662.17
